Time;durP1;ratioP1;P1;durP2;ratioP2;P2;SDS_P1;SDS_P2;PMS_P1;PMS_P2;Temp;Humidity;BMP_temperature;BMP_pressure;BME280_temperature;BME280_humidity;BME280_pressure;Samples;Min_cycle;Max_cycle;Signal;HPM_P1;HPM_P2
2022/09/21 00:00:46;;;;;;;6.38;3.63;;;10.00;99.90;;;;;;4895944;29;20040;-62
2022/09/21 00:03:13;;;;;;;6.63;3.47;;;10.00;99.90;;;;;;4899853;29;20044;-62
2022/09/21 00:05:39;;;;;;;7.53;3.90;;;10.00;99.90;;;;;;4899937;29;20103;-62
2022/09/21 00:08:06;;;;;;;7.32;4.00;;;10.10;99.90;;;;;;4899744;29;20033;-62
2022/09/21 00:10:32;;;;;;;8.00;3.83;;;10.10;99.90;;;;;;4900105;29;20041;-63
2022/09/21 00:12:59;;;;;;;8.13;3.90;;;10.00;99.90;;;;;;4899948;29;20055;-61
2022/09/21 00:15:25;;;;;;;8.02;3.78;;;10.10;99.90;;;;;;4899850;29;20339;-61
2022/09/21 00:17:55;;;;;;;6.63;3.70;;;10.00;99.90;;;;;;4891746;29;20064;-61
2022/09/21 00:20:21;;;;;;;6.00;3.50;;;10.00;99.90;;;;;;4890774;29;20041;-60
2022/09/21 00:22:47;;;;;;;5.25;3.17;;;9.90;99.90;;;;;;4899866;29;20056;-61
2022/09/21 00:25:14;;;;;;;5.70;3.00;;;9.90;99.90;;;;;;4899673;29;20172;-61
2022/09/21 00:27:40;;;;;;;6.47;3.05;;;9.90;99.90;;;;;;4899406;29;20088;-61
2022/09/21 00:30:06;;;;;;;6.30;3.15;;;9.90;99.90;;;;;;4899321;29;20041;-60
2022/09/21 00:32:34;;;;;;;6.78;3.33;;;9.90;99.90;;;;;;4899678;29;20048;-62
2022/09/21 00:35:01;;;;;;;6.82;2.85;;;9.90;99.90;;;;;;4899203;29;20060;-61
2022/09/21 00:37:28;;;;;;;6.05;2.63;;;9.80;99.90;;;;;;4891937;29;20061;-62
2022/09/21 00:39:54;;;;;;;7.57;3.25;;;9.80;99.90;;;;;;4893326;29;20101;-63
2022/09/21 00:42:26;;;;;;;8.57;2.75;;;9.80;99.90;;;;;;4899313;29;20044;-62
2022/09/21 00:44:51;;;;;;;6.07;2.75;;;9.80;99.90;;;;;;4881855;29;20451;-61
2022/09/21 00:47:35;;;;;;;4.68;2.83;;;9.80;99.90;;;;;;4898824;29;20092;-62
2022/09/21 00:50:23;;;;;;;5.90;3.33;;;9.80;99.90;;;;;;4882235;29;20475;-62
2022/09/21 00:52:52;;;;;;;5.38;2.88;;;9.70;99.90;;;;;;4882144;29;20490;-62
2022/09/21 00:55:24;;;;;;;7.25;3.30;;;9.70;99.90;;;;;;4898510;29;20474;-62
2022/09/21 00:57:53;;;;;;;6.85;3.30;;;9.70;99.90;;;;;;4898934;29;20045;-61
2022/09/21 01:00:19;;;;;;;8.23;3.67;;;9.70;99.90;;;;;;4898970;29;20044;-61
2022/09/21 01:02:45;;;;;;;8.48;3.50;;;9.70;99.90;;;;;;4898787;29;20033;-62
2022/09/21 01:05:10;;;;;;;6.80;3.35;;;9.50;99.90;;;;;;4898825;29;20094;-62
2022/09/21 01:07:42;;;;;;;8.40;3.60;;;9.50;99.90;;;;;;4898491;29;20036;-62
2022/09/21 01:10:13;;;;;;;6.53;3.40;;;9.40;99.90;;;;;;4899248;29;20036;-61
2022/09/21 01:12:58;;;;;;;8.43;4.13;;;9.30;99.90;;;;;;4898152;29;20568;-62
2022/09/21 01:15:52;;;;;;;6.40;3.58;;;9.30;99.90;;;;;;4898661;29;20059;-61
2022/09/21 01:18:29;;;;;;;6.60;3.55;;;9.30;99.90;;;;;;4898974;29;20443;-62
2022/09/21 01:21:23;;;;;;;9.05;3.60;;;9.30;99.90;;;;;;4898845;29;20202;-62
2022/09/21 01:23:59;;;;;;;10.27;4.13;;;9.20;99.90;;;;;;4898168;29;20079;-62
2022/09/21 01:26:57;;;;;;;8.15;3.83;;;9.10;99.90;;;;;;4898157;29;20068;-61
2022/09/21 01:29:27;;;;;;;8.13;3.85;;;9.10;99.90;;;;;;4889546;29;20135;-61
2022/09/21 01:32:10;;;;;;;9.18;3.60;;;9.00;99.90;;;;;;4898236;29;20056;-62
2022/09/21 01:34:48;;;;;;;4.82;3.28;;;9.00;99.90;;;;;;4898326;29;20080;-61
2022/09/21 01:37:18;;;;;;;7.47;3.35;;;9.00;99.90;;;;;;4897531;29;20053;-61
2022/09/21 01:39:48;;;;;;;9.88;3.60;;;9.10;99.90;;;;;;4898605;29;20045;-61
2022/09/21 01:42:16;;;;;;;7.28;3.65;;;9.10;99.90;;;;;;4898299;29;20088;-61
2022/09/21 01:44:44;;;;;;;9.88;3.55;;;9.00;99.90;;;;;;4887585;29;20112;-61
2022/09/21 01:47:14;;;;;;;8.73;3.65;;;9.00;99.90;;;;;;4885031;29;20041;-62
2022/09/21 01:49:45;;;;;;;6.45;3.30;;;9.00;99.90;;;;;;4897671;29;20498;-61
2022/09/21 01:52:19;;;;;;;5.68;3.40;;;8.90;99.90;;;;;;4897717;29;20377;-62
2022/09/21 01:54:50;;;;;;;6.53;3.58;;;8.90;99.90;;;;;;4897977;29;20501;-63
2022/09/21 01:57:16;;;;;;;7.70;4.25;;;8.90;99.90;;;;;;4898047;29;20028;-61
2022/09/21 01:59:59;;;;;;;7.60;3.65;;;8.80;99.90;;;;;;4898047;29;20514;-60
2022/09/21 02:02:40;;;;;;;6.60;3.30;;;8.90;99.90;;;;;;4897628;29;20105;-60
2022/09/21 02:05:06;;;;;;;8.27;3.42;;;8.90;99.90;;;;;;4897605;29;20062;-62
2022/09/21 02:07:34;;;;;;;6.28;3.42;;;8.80;99.90;;;;;;4897596;29;20040;-62
2022/09/21 02:10:01;;;;;;;7.63;3.72;;;8.80;99.90;;;;;;4898086;29;20060;-62
2022/09/21 02:12:30;;;;;;;7.82;3.92;;;8.80;99.90;;;;;;4897813;29;20048;-62
2022/09/21 02:14:56;;;;;;;8.25;3.40;;;8.70;99.90;;;;;;4897583;29;20037;-62
2022/09/21 02:17:40;;;;;;;5.60;3.47;;;8.70;99.90;;;;;;4897796;29;20437;-61
2022/09/21 02:20:26;;;;;;;6.97;3.70;;;8.70;99.90;;;;;;4886937;29;20044;-61
2022/09/21 02:23:21;;;;;;;7.18;3.53;;;8.60;99.90;;;;;;4897550;29;20032;-61
2022/09/21 02:26:05;;;;;;;7.18;3.55;;;8.60;99.90;;;;;;4895944;29;20401;-62
2022/09/21 02:28:41;;;;;;;6.95;4.15;;;8.60;99.90;;;;;;4897028;29;20068;-62
2022/09/21 02:31:15;;;;;;;7.05;3.80;;;8.60;99.90;;;;;;4897216;29;20123;-61
2022/09/21 02:33:46;;;;;;;;;;;8.60;99.90;;;;;;4880549;29;20041;-62
2022/09/21 02:36:28;;;;;;;5.55;3.30;;;8.50;99.90;;;;;;4897358;29;19924;-62
2022/09/21 02:39:05;;;;;;;6.43;3.33;;;8.50;99.90;;;;;;4880696;29;20055;-62
2022/09/21 02:41:48;;;;;;;6.78;3.80;;;8.70;99.90;;;;;;4897041;29;20120;-62
2022/09/21 02:44:24;;;;;;;6.85;3.20;;;8.60;99.90;;;;;;4896596;29;20148;-62
2022/09/21 02:46:54;;;;;;;6.22;3.53;;;8.60;99.90;;;;;;4886822;29;20048;-62
2022/09/21 02:49:26;;;;;;;5.40;3.60;;;8.60;99.90;;;;;;4897399;29;20077;-62
2022/09/21 02:51:58;;;;;;;6.00;4.00;;;8.60;99.90;;;;;;4897324;29;20070;-62
2022/09/21 02:54:28;;;;;;;5.55;3.83;;;8.50;99.90;;;;;;4880579;29;20147;-62
2022/09/21 02:56:55;;;;;;;7.22;3.85;;;8.40;99.90;;;;;;4897107;29;20048;-61
2022/09/21 02:59:22;;;;;;;6.82;4.18;;;8.40;99.90;;;;;;4897163;29;20068;-62
2022/09/21 03:01:49;;;;;;;9.85;3.80;;;8.40;99.90;;;;;;4896994;29;20054;-62
2022/09/21 03:04:15;;;;;;;4.82;3.20;;;8.40;99.90;;;;;;4896150;29;20041;-62
2022/09/21 03:06:41;;;;;;;6.35;3.53;;;8.40;99.90;;;;;;4896867;29;20044;-62
2022/09/21 03:09:07;;;;;;;6.30;3.72;;;8.40;99.90;;;;;;4896676;29;20051;-62
2022/09/21 03:11:34;;;;;;;7.88;4.25;;;8.40;99.90;;;;;;4896437;29;20336;-62
2022/09/21 03:14:04;;;;;;;8.35;3.47;;;8.40;99.90;;;;;;4895928;29;20040;-62
2022/09/21 03:16:29;;;;;;;5.90;3.00;;;8.30;99.90;;;;;;4896468;29;20040;-62
2022/09/21 03:18:55;;;;;;;4.47;2.83;;;8.30;99.90;;;;;;4896932;29;20055;-62
2022/09/21 03:21:21;;;;;;;5.53;3.00;;;8.30;99.90;;;;;;4897055;29;20043;-62
2022/09/21 03:23:46;;;;;;;5.50;3.03;;;8.20;99.90;;;;;;4896487;29;20056;-62
2022/09/21 03:26:12;;;;;;;5.03;2.97;;;8.30;99.90;;;;;;4896506;29;20037;-62
2022/09/21 03:28:37;;;;;;;7.65;2.83;;;8.30;99.90;;;;;;4896226;29;20179;-62
2022/09/21 03:31:05;;;;;;;6.25;2.90;;;8.20;99.90;;;;;;4896693;29;20364;-62
2022/09/21 03:33:30;;;;;;;5.15;2.80;;;8.20;99.90;;;;;;4896330;29;20080;-62
2022/09/21 03:35:57;;;;;;;5.53;3.00;;;8.30;99.90;;;;;;4895780;29;20064;-62
2022/09/21 03:38:24;;;;;;;5.20;2.85;;;8.20;99.90;;;;;;4882827;29;20055;-63
2022/09/21 03:40:50;;;;;;;4.22;2.72;;;8.20;99.90;;;;;;4879466;29;20549;-62
2022/09/21 03:43:16;;;;;;;5.53;2.60;;;8.30;99.90;;;;;;4896731;29;20079;-62
2022/09/21 03:45:42;;;;;;;5.15;2.60;;;8.30;99.90;;;;;;4896081;29;20431;-63
2022/09/21 03:48:09;;;;;;;5.43;3.10;;;8.30;99.90;;;;;;4886033;29;20105;-62
2022/09/21 03:50:36;;;;;;;5.43;3.13;;;8.20;99.90;;;;;;4879547;29;20068;-62
2022/09/21 03:53:02;;;;;;;4.43;2.70;;;8.20;99.90;;;;;;4896010;29;20032;-62
2022/09/21 03:55:28;;;;;;;5.03;3.20;;;8.20;99.90;;;;;;4895946;29;20040;-62
2022/09/21 03:57:54;;;;;;;5.70;3.10;;;8.20;99.90;;;;;;4879653;29;20070;-62
2022/09/21 04:00:20;;;;;;;8.60;4.00;;;8.20;99.90;;;;;;4896074;29;20450;-62
2022/09/21 04:02:46;;;;;;;5.85;3.50;;;8.20;99.90;;;;;;4896052;29;20041;-62
2022/09/21 04:05:14;;;;;;;5.47;3.10;;;8.20;99.90;;;;;;4879268;29;20541;-62
2022/09/21 04:07:41;;;;;;;5.55;3.30;;;8.20;99.90;;;;;;4895879;29;20041;-62
2022/09/21 04:10:12;;;;;;;5.18;3.28;;;8.10;99.90;;;;;;4896524;29;20144;-62
2022/09/21 04:12:42;;;;;;;6.32;3.22;;;8.10;99.90;;;;;;4896329;29;20474;-62
2022/09/21 04:15:14;;;;;;;7.93;3.80;;;8.10;99.90;;;;;;4879566;29;20367;-62
2022/09/21 04:17:40;;;;;;;4.93;3.13;;;8.10;99.90;;;;;;4896072;29;20055;-64
2022/09/21 04:20:07;;;;;;;7.30;4.07;;;8.10;99.90;;;;;;4896367;29;20059;-62
2022/09/21 04:22:35;;;;;;;4.88;3.05;;;8.00;99.90;;;;;;4896065;29;20045;-62
2022/09/21 04:25:02;;;;;;;6.28;3.42;;;8.00;99.90;;;;;;4895969;29;20063;-62
2022/09/21 04:27:28;;;;;;;7.88;3.25;;;8.00;99.90;;;;;;4895980;29;20044;-62
2022/09/21 04:29:54;;;;;;;5.10;3.13;;;8.00;99.90;;;;;;4896150;29;20040;-63
2022/09/21 04:32:19;;;;;;;4.95;3.13;;;8.00;99.90;;;;;;4896457;29;20041;-61
2022/09/21 04:34:45;;;;;;;5.15;3.45;;;8.00;99.90;;;;;;4895873;29;20377;-62
2022/09/21 04:37:11;;;;;;;6.40;3.78;;;8.00;99.90;;;;;;4894956;29;20144;-63
2022/09/21 04:39:37;;;;;;;5.35;3.75;;;7.90;99.90;;;;;;4886022;29;20498;-62
2022/09/21 04:42:03;;;;;;;6.32;3.80;;;7.80;99.90;;;;;;4880160;29;20122;-62
2022/09/21 04:44:29;;;;;;;9.95;3.80;;;7.80;99.90;;;;;;4895845;29;20644;-62
2022/09/21 04:46:59;;;;;;;5.72;3.50;;;7.80;99.90;;;;;;4895603;29;20055;-62
2022/09/21 04:49:24;;;;;;;6.47;3.90;;;7.80;99.90;;;;;;4899364;29;20091;-62
2022/09/21 04:51:50;;;;;;;6.30;3.67;;;7.80;99.90;;;;;;4899469;29;20072;-62
2022/09/21 04:54:15;;;;;;;5.38;3.58;;;7.70;99.90;;;;;;4898508;29;20040;-62
2022/09/21 04:56:41;;;;;;;6.65;3.72;;;7.70;99.90;;;;;;4897324;29;20044;-62
2022/09/21 04:59:07;;;;;;;7.22;3.80;;;7.70;99.90;;;;;;4896260;29;20116;-63
2022/09/21 05:01:32;;;;;;;7.25;3.58;;;7.70;99.90;;;;;;4898201;29;20147;-62
2022/09/21 05:04:00;;;;;;;6.90;3.58;;;7.70;99.90;;;;;;4880711;29;20071;-61
2022/09/21 05:06:30;;;;;;;7.40;3.40;;;7.70;99.90;;;;;;4897964;29;20502;-62
2022/09/21 05:11:40;;;;;;;7.22;3.78;;;7.80;99.90;;;;;;4897836;29;20049;-62
2022/09/21 05:14:06;;;;;;;7.50;3.50;;;7.70;99.90;;;;;;4872938;29;20041;-62
2022/09/21 05:16:31;;;;;;;5.82;3.50;;;7.70;99.90;;;;;;4898632;29;20343;-62
2022/09/21 05:18:57;;;;;;;6.18;3.70;;;7.70;99.90;;;;;;4889372;29;20037;-62
2022/09/21 05:21:23;;;;;;;7.50;3.40;;;7.70;99.90;;;;;;4898043;29;20450;-62
2022/09/21 05:23:48;;;;;;;5.95;3.50;;;7.80;99.90;;;;;;4891528;29;20036;-62
2022/09/21 05:26:14;;;;;;;6.28;3.70;;;7.70;99.90;;;;;;4892071;29;21530;-61
2022/09/21 05:28:40;;;;;;;7.38;3.60;;;7.70;99.90;;;;;;4896103;29;20127;-62
2022/09/21 05:31:39;;;;;;;5.15;3.30;;;7.60;99.90;;;;;;4866149;29;20357;-62
2022/09/21 05:34:38;;;;;;;6.53;3.55;;;7.60;99.90;;;;;;4882421;29;20042;-62
2022/09/21 05:37:23;;;;;;;6.07;3.40;;;7.60;99.90;;;;;;4894848;29;20398;-62
2022/09/21 05:39:49;;;;;;;6.35;3.55;;;7.60;99.90;;;;;;4882222;29;20040;-62
2022/09/21 05:42:14;;;;;;;7.18;3.60;;;7.70;99.90;;;;;;4884987;29;20047;-62
2022/09/21 05:44:40;;;;;;;7.15;3.00;;;7.70;99.90;;;;;;4881670;29;20104;-62
2022/09/21 05:47:18;;;;;;;6.90;3.63;;;7.70;99.90;;;;;;4893409;29;20356;-63
2022/09/21 05:50:00;;;;;;;9.50;3.90;;;7.70;99.90;;;;;;4897823;29;20048;-62
2022/09/21 05:52:45;;;;;;;8.32;4.13;;;7.70;99.90;;;;;;4896629;29;20371;-62
2022/09/21 05:55:42;;;;;;;10.70;4.90;;;7.80;99.90;;;;;;4882397;29;20081;-62
2022/09/21 05:58:35;;;;;;;9.43;4.50;;;7.80;99.90;;;;;;4881244;29;20711;-62
2022/09/21 06:01:27;;;;;;;12.82;4.97;;;7.80;99.90;;;;;;4884602;29;20033;-61
2022/09/21 06:03:54;;;;;;;11.05;4.40;;;7.80;99.90;;;;;;4883125;29;20053;-62
2022/09/21 06:06:20;;;;;;;9.23;4.47;;;7.80;99.90;;;;;;4886735;29;20052;-63
2022/09/21 06:08:45;;;;;;;6.25;3.65;;;8.00;99.90;;;;;;4896783;29;20032;-62
2022/09/21 06:11:12;;;;;;;5.00;3.17;;;8.40;99.90;;;;;;4896609;29;20052;-63
2022/09/21 06:13:39;;;;;;;7.82;3.80;;;8.80;99.90;;;;;;4896414;29;20554;-63
2022/09/21 06:16:06;;;;;;;6.72;3.50;;;9.30;99.90;;;;;;4895390;29;20040;-65
2022/09/21 06:18:37;;;;;;;8.52;3.25;;;9.60;99.90;;;;;;4896687;29;20331;-63
2022/09/21 06:21:02;;;;;;;10.23;3.38;;;10.00;99.90;;;;;;4896602;29;20036;-63
2022/09/21 06:23:28;;;;;;;6.90;3.13;;;10.20;99.90;;;;;;4896083;29;20486;-64
2022/09/21 06:25:53;;;;;;;6.10;2.95;;;10.40;99.90;;;;;;4848590;29;20531;-62
2022/09/21 06:28:19;;;;;;;7.07;2.90;;;10.60;99.90;;;;;;4893259;29;20111;-62
2022/09/21 06:30:57;;;;;;;7.32;2.65;;;10.80;99.90;;;;;;4896449;29;20041;-62
2022/09/21 06:33:23;;;;;;;7.18;2.95;;;11.00;99.90;;;;;;4879606;29;20339;-62
2022/09/21 06:35:55;;;;;;;6.05;2.92;;;11.30;99.90;;;;;;4890094;29;20041;-62
2022/09/21 06:38:22;;;;;;;10.95;3.33;;;11.50;99.90;;;;;;4893958;29;20100;-62
2022/09/21 06:40:48;;;;;;;11.48;3.65;;;11.70;99.90;;;;;;4891331;29;20060;-62
2022/09/21 06:43:14;;;;;;;9.27;3.78;;;11.80;99.90;;;;;;4885332;29;20063;-62
2022/09/21 06:45:39;;;;;;;9.48;4.18;;;11.50;99.90;;;;;;4879017;29;20037;-63
2022/09/21 06:48:05;;;;;;;10.27;4.78;;;11.30;99.90;;;;;;4878808;29;20055;-62
2022/09/21 06:50:30;;;;;;;8.65;4.25;;;11.10;99.90;;;;;;4879170;29;20124;-62
2022/09/21 06:52:59;;;;;;;13.70;4.68;;;11.00;99.90;;;;;;4878704;29;20473;-62
2022/09/21 06:55:25;;;;;;;8.65;4.57;;;10.90;99.90;;;;;;4892608;29;20037;-62
2022/09/21 06:57:50;;;;;;;11.18;4.90;;;10.80;99.90;;;;;;4880399;29;20093;-62
2022/09/21 07:00:16;;;;;;;12.10;4.93;;;10.80;99.90;;;;;;4888393;29;20476;-62
2022/09/21 07:02:45;;;;;;;9.48;4.90;;;10.90;99.90;;;;;;4889455;29;20075;-61
2022/09/21 07:05:11;;;;;;;9.18;4.80;;;10.90;99.90;;;;;;4884271;29;20455;-62
2022/09/21 07:07:37;;;;;;;9.73;5.30;;;11.00;99.90;;;;;;4886967;29;20037;-62
2022/09/21 07:10:06;;;;;;;7.68;5.00;;;11.10;99.90;;;;;;4883831;29;20105;-62
2022/09/21 07:12:33;;;;;;;8.13;4.82;;;11.10;99.90;;;;;;4885101;29;20535;-63
2022/09/21 07:14:59;;;;;;;9.50;4.93;;;11.10;99.90;;;;;;4893255;29;20040;-62
2022/09/21 07:17:26;;;;;;;9.70;4.80;;;11.20;99.90;;;;;;4888124;29;20048;-62
2022/09/21 07:19:51;;;;;;;8.30;4.70;;;11.30;99.90;;;;;;4892968;29;20051;-62
2022/09/21 07:22:17;;;;;;;8.77;4.55;;;11.30;99.90;;;;;;4890503;29;20040;-62
2022/09/21 07:24:42;;;;;;;8.55;4.28;;;11.40;99.90;;;;;;4891389;29;20488;-62
2022/09/21 07:27:08;;;;;;;8.27;4.30;;;11.40;99.90;;;;;;4892771;29;20107;-62
2022/09/21 07:29:34;;;;;;;8.88;4.05;;;11.50;99.90;;;;;;4896719;29;20132;-62
2022/09/21 07:31:59;;;;;;;7.18;4.18;;;11.60;99.90;;;;;;4896500;29;20378;-62
2022/09/21 07:34:25;;;;;;;7.10;3.95;;;11.70;99.90;;;;;;4896315;29;20033;-62
2022/09/21 07:36:50;;;;;;;9.93;4.20;;;11.80;99.90;;;;;;4895235;29;20209;-62
2022/09/21 07:39:16;;;;;;;9.63;3.92;;;11.90;99.90;;;;;;4884982;29;20047;-62
2022/09/21 07:41:41;;;;;;;7.80;3.90;;;12.00;99.90;;;;;;4895964;29;20060;-62
2022/09/21 07:44:07;;;;;;;6.15;3.60;;;12.10;99.90;;;;;;4896347;29;20048;-62
2022/09/21 07:46:33;;;;;;;8.70;3.95;;;12.20;99.90;;;;;;4893987;29;20048;-63
2022/09/21 07:48:58;;;;;;;7.78;4.20;;;12.30;99.90;;;;;;4883286;29;20435;-62
2022/09/21 07:51:24;;;;;;;8.18;3.88;;;12.40;99.90;;;;;;4896272;29;20043;-61
2022/09/21 07:53:57;;;;;;;7.70;3.65;;;12.60;99.90;;;;;;4894624;29;20041;-63
2022/09/21 07:56:23;;;;;;;7.30;3.92;;;12.70;99.90;;;;;;4895160;29;20044;-62
2022/09/21 07:59:07;;;;;;;6.72;3.50;;;12.80;99.90;;;;;;4883172;29;20467;-62
2022/09/21 08:01:38;;;;;;;8.65;3.88;;;12.90;99.90;;;;;;4881161;29;20045;-62
2022/09/21 08:04:08;;;;;;;6.10;3.33;;;13.00;99.90;;;;;;4882947;29;20056;-62
2022/09/21 08:06:38;;;;;;;5.40;3.17;;;13.10;99.90;;;;;;4881186;29;20057;-63
2022/09/21 08:09:04;;;;;;;7.68;3.67;;;13.20;99.90;;;;;;4882035;29;20132;-61
2022/09/21 08:11:32;;;;;;;8.05;3.63;;;13.30;99.90;;;;;;4882759;29;20131;-62
2022/09/21 08:14:00;;;;;;;7.70;3.67;;;13.40;99.90;;;;;;4879731;29;20041;-62
2022/09/21 08:16:27;;;;;;;8.43;3.80;;;13.50;99.90;;;;;;4867197;29;20040;-62
2022/09/21 08:18:53;;;;;;;7.50;3.60;;;13.60;99.90;;;;;;4882423;29;20127;-62
2022/09/21 08:21:20;;;;;;;9.20;3.90;;;13.70;99.90;;;;;;4883852;29;20032;-62
2022/09/21 08:23:48;;;;;;;7.15;3.90;;;13.80;99.90;;;;;;4883426;29;20128;-62
2022/09/21 08:26:17;;;;;;;10.30;3.92;;;13.90;99.90;;;;;;4886478;29;20069;-62
2022/09/21 08:28:43;;;;;;;8.65;3.55;;;14.10;99.90;;;;;;4899514;29;20059;-61
2022/09/21 08:31:09;;;;;;;7.50;3.60;;;14.20;99.90;;;;;;4899976;29;20091;-62
2022/09/21 08:33:35;;;;;;;8.63;3.67;;;14.20;99.90;;;;;;4899595;29;20068;-63
2022/09/21 08:36:02;;;;;;;6.20;3.00;;;14.30;99.90;;;;;;4899209;29;20105;-61
2022/09/21 08:38:33;;;;;;;8.60;3.38;;;14.40;99.90;;;;;;4882311;29;20561;-62
2022/09/21 08:41:00;;;;;;;5.75;3.10;;;14.40;99.90;;;;;;4899703;29;20044;-61
2022/09/21 08:43:33;;;;;;;7.80;3.28;;;14.60;99.90;;;;;;4899557;29;20068;-61
2022/09/21 08:46:02;;;;;;;10.93;3.45;;;14.60;99.90;;;;;;4897243;29;20044;-61
2022/09/21 08:48:31;;;;;;;8.15;2.95;;;14.70;99.90;;;;;;4898935;29;20056;-62
2022/09/21 08:51:01;;;;;;;8.80;2.75;;;14.80;99.90;;;;;;4886491;29;20051;-62
2022/09/21 08:53:40;;;;;;;6.60;2.78;;;14.80;99.90;;;;;;4899094;29;20041;-62
2022/09/21 08:56:10;;;;;;;8.07;2.63;;;15.00;99.90;;;;;;4898797;29;20100;-62
2022/09/21 08:58:39;;;;;;;9.55;3.10;;;15.10;99.90;;;;;;4899068;29;20049;-62
2022/09/21 09:01:39;;;;;;;8.57;2.80;;;15.20;99.90;;;;;;4899250;29;20403;-62
2022/09/21 09:04:28;;;;;;;8.93;3.38;;;15.20;99.90;;;;;;4899208;29;20044;-62
2022/09/21 09:07:30;;;;;;;6.72;3.22;;;15.20;99.90;;;;;;4898833;29;20080;-61
2022/09/21 09:10:26;;;;;;;10.65;3.22;;;15.20;99.90;;;;;;4887879;29;20124;-61
2022/09/21 09:13:13;;;;;;;6.78;2.78;;;15.30;99.90;;;;;;4899153;29;20072;-62
2022/09/21 09:16:19;;;;;;;5.93;2.53;;;15.40;99.90;;;;;;4899187;29;20135;-62
2022/09/21 09:18:59;;;;;;;6.05;2.63;;;15.60;99.90;;;;;;4879325;29;20053;-62
2022/09/21 09:21:38;;;;;;;7.57;2.75;;;15.70;99.90;;;;;;4898917;29;20043;-62
2022/09/21 09:24:34;;;;;;;8.75;2.80;;;15.80;99.90;;;;;;4898784;29;20045;-62
2022/09/21 09:27:21;;;;;;;9.32;2.45;;;15.70;99.90;;;;;;4887768;29;20467;-61
2022/09/21 09:29:59;;;;;;;6.45;2.75;;;15.80;99.90;;;;;;4898751;29;20494;-61
2022/09/21 09:32:52;;;;;;;6.10;2.53;;;15.90;99.90;;;;;;4886967;29;20040;-62
2022/09/21 09:35:54;;;;;;;6.30;1.80;;;16.00;99.90;;;;;;4897209;29;20544;-61
2022/09/21 09:38:40;;;;;;;4.72;1.90;;;16.10;99.90;;;;;;4898108;29;20060;-61
2022/09/21 09:41:06;;;;;;;6.97;2.13;;;16.30;99.90;;;;;;4898668;29;20040;-62
2022/09/21 09:44:03;;;;;;;6.88;1.85;;;16.30;99.90;;;;;;4898499;29;20493;-62
2022/09/21 09:46:54;;;;;;;7.55;2.13;;;16.40;99.90;;;;;;4898227;29;20104;-62
2022/09/21 09:49:19;;;;;;;8.02;1.55;;;16.50;99.90;;;;;;4897942;29;20080;-62
2022/09/21 09:51:46;;;;;;;7.30;1.73;;;16.50;99.90;;;;;;4898599;29;20072;-61
2022/09/21 09:54:14;;;;;;;7.00;1.83;;;16.60;99.90;;;;;;4898083;29;20143;-62
2022/09/21 09:56:41;;;;;;;7.55;1.80;;;16.70;99.90;;;;;;4898067;29;20053;-62
2022/09/21 09:59:22;;;;;;;6.28;1.80;;;16.70;99.90;;;;;;4897894;29;20434;-61
2022/09/21 10:02:09;;;;;;;7.70;1.85;;;16.60;99.90;;;;;;4898416;29;20147;-63
2022/09/21 10:04:35;;;;;;;6.10;1.90;;;16.70;99.90;;;;;;4885417;29;20063;-61
2022/09/21 10:07:01;;;;;;;7.22;1.83;;;16.80;99.90;;;;;;4897621;29;20128;-61
2022/09/21 10:09:29;;;;;;;6.32;1.45;;;16.80;99.90;;;;;;4897638;29;20032;-61
2022/09/21 10:12:01;;;;;;;5.57;1.65;;;17.00;99.90;;;;;;4889274;29;20061;-61
2022/09/21 10:14:31;;;;;;;6.10;1.83;;;17.00;99.90;;;;;;4881873;29;20036;-61
2022/09/21 10:17:06;;;;;;;6.00;1.73;;;17.10;99.90;;;;;;4880670;29;20040;-62
2022/09/21 10:19:32;;;;;;;6.32;1.60;;;17.10;99.90;;;;;;4881770;29;20048;-62
2022/09/21 10:22:00;;;;;;;5.80;1.60;;;17.20;99.90;;;;;;4880494;29;20040;-62
2022/09/21 10:24:36;;;;;;;7.57;1.70;;;17.20;99.90;;;;;;4881293;29;20528;-62
2022/09/21 10:27:06;;;;;;;5.53;1.75;;;17.30;99.90;;;;;;4895853;29;20040;-63
2022/09/21 10:29:45;;;;;;;6.38;1.70;;;17.50;99.90;;;;;;4897475;29;20446;-61
2022/09/21 10:32:23;;;;;;;4.40;1.40;;;17.50;99.90;;;;;;4897597;29;20088;-62
2022/09/21 10:35:06;;;;;;;9.55;2.13;;;17.60;99.90;;;;;;4897447;29;20044;-63
2022/09/21 10:37:39;;;;;;;6.65;2.00;;;17.60;99.90;;;;;;4884835;29;20056;-62
2022/09/21 10:40:20;;;;;;;8.07;2.10;;;17.70;99.90;;;;;;4897491;29;20128;-63
2022/09/21 10:42:49;;;;;;;6.18;1.83;;;17.80;99.90;;;;;;4897733;29;20135;-61
2022/09/21 10:45:20;;;;;;;5.78;1.50;;;17.70;99.90;;;;;;4895184;29;20104;-62
2022/09/21 10:47:47;;;;;;;7.75;2.17;;;17.80;99.90;;;;;;4878841;29;20055;-62
2022/09/21 10:50:24;;;;;;;4.80;1.40;;;17.90;99.90;;;;;;4896254;29;20036;-62
2022/09/21 10:52:55;;;;;;;4.50;1.58;;;17.80;99.90;;;;;;4895535;29;20036;-62
2022/09/21 10:55:23;;;;;;;5.53;1.60;;;17.90;99.90;;;;;;4896812;29;20136;-63
2022/09/21 10:57:51;;;;;;;4.78;1.30;;;17.90;99.90;;;;;;4879827;29;20036;-62
2022/09/21 11:00:30;;;;;;;5.95;1.88;;;18.00;99.90;;;;;;4896654;29;20378;-62
2022/09/21 11:02:59;;;;;;;4.50;1.50;;;18.10;99.90;;;;;;4896402;29;20439;-63
2022/09/21 11:05:36;;;;;;;5.75;1.63;;;18.10;99.90;;;;;;4879877;29;20419;-62
2022/09/21 11:08:19;;;;;;;4.93;1.52;;;17.80;99.90;;;;;;4894225;29;20080;-61
2022/09/21 11:11:08;;;;;;;5.88;1.77;;;17.80;99.90;;;;;;4896473;29;20411;-62
2022/09/21 11:13:36;;;;;;;4.45;1.40;;;18.00;99.90;;;;;;4895864;29;20662;-62
2022/09/21 11:16:38;;;;;;;7.10;1.63;;;18.20;99.90;;;;;;4896009;29;20559;-62
2022/09/21 11:19:21;;;;;;;7.18;1.38;;;18.40;99.90;;;;;;4857654;29;20049;-62
2022/09/21 11:21:56;;;;;;;5.57;1.33;;;18.30;99.90;;;;;;4884059;29;20048;-63
2022/09/21 11:25:11;;;;;;;4.72;1.30;;;18.50;99.90;;;;;;4889579;29;20065;-62
2022/09/21 11:27:41;;;;;;;;;;;18.70;99.90;;;;;;4858008;29;20514;-62
2022/09/21 11:30:16;;;;;;;5.88;1.40;;;18.80;99.90;;;;;;4896020;29;19983;-63
2022/09/21 11:33:03;;;;;;;7.18;1.63;;;18.80;99.60;;;;;;4894723;29;20052;-63
2022/09/21 11:35:42;;;;;;;6.97;1.70;;;18.80;99.90;;;;;;4895658;29;20040;-63
2022/09/21 11:38:12;;;;;;;5.72;1.40;;;18.70;99.90;;;;;;4895482;29;20135;-63
2022/09/21 11:41:00;;;;;;;7.20;1.38;;;18.80;99.90;;;;;;4895968;29;20533;-66
2022/09/21 11:43:55;;;;;;;5.43;1.60;;;18.90;99.90;;;;;;4896004;29;20108;-65
2022/09/21 11:46:29;;;;;;;7.80;1.50;;;19.00;99.90;;;;;;4848328;29;20045;-64
2022/09/21 11:49:03;;;;;;;5.22;1.38;;;18.80;99.60;;;;;;4882505;29;20040;-63
2022/09/21 11:52:12;;;;;;;5.47;1.40;;;18.80;99.90;;;;;;4879273;29;20336;-63
2022/09/21 11:55:12;;;;;;;4.75;1.17;;;18.70;98.10;;;;;;4880301;29;20048;-65
2022/09/21 11:57:59;;;;;;;4.10;1.00;;;18.60;99.10;;;;;;4883409;29;20171;-63
2022/09/21 12:00:30;;;;;;;6.00;1.33;;;18.70;99.70;;;;;;4884199;29;20056;-63
2022/09/21 12:03:26;;;;;;;5.47;1.33;;;18.90;99.70;;;;;;4883950;29;20037;-63
2022/09/21 12:06:15;;;;;;;5.15;1.30;;;19.00;98.70;;;;;;4886305;29;20098;-63
2022/09/21 12:08:52;;;;;;;8.20;1.90;;;18.90;98.70;;;;;;4883212;29;20045;-62
2022/09/21 12:11:47;;;;;;;5.40;1.55;;;18.90;98.80;;;;;;4886536;29;20096;-62
2022/09/21 12:14:24;;;;;;;7.22;1.13;;;19.00;98.60;;;;;;4885376;29;20124;-64
2022/09/21 12:16:54;;;;;;;5.15;1.50;;;19.00;98.80;;;;;;4883435;29;20422;-62
2022/09/21 12:19:47;;;;;;;6.75;1.30;;;19.10;98.30;;;;;;4885995;29;20041;-64
2022/09/21 12:22:16;;;;;;;7.82;1.25;;;19.00;98.00;;;;;;4883851;29;20081;-62
2022/09/21 12:24:53;;;;;;;3.50;1.13;;;19.20;98.50;;;;;;4885924;29;20036;-63
2022/09/21 12:27:52;;;;;;;3.58;1.00;;;19.40;98.40;;;;;;4889233;29;20041;-63
2022/09/21 12:30:21;;;;;;;4.97;1.38;;;19.30;98.20;;;;;;4899062;29;20553;-63
2022/09/21 12:33:14;;;;;;;7.30;1.27;;;19.30;98.30;;;;;;4899821;29;20049;-63
2022/09/21 12:35:46;;;;;;;4.45;1.00;;;19.30;97.80;;;;;;4886580;29;20127;-62
2022/09/21 12:38:30;;;;;;;4.88;1.52;;;19.20;97.90;;;;;;4899369;29;20147;-62
2022/09/21 12:41:22;;;;;;;6.05;1.25;;;19.40;97.60;;;;;;4888089;29;20044;-62
2022/09/21 12:44:04;;;;;;;4.78;1.10;;;19.40;97.50;;;;;;4899131;29;20370;-62
2022/09/21 12:46:32;;;;;;;5.40;1.45;;;19.20;98.20;;;;;;4897229;29;20049;-61
2022/09/21 12:49:01;;;;;;;3.58;1.30;;;19.20;98.10;;;;;;4899200;29;20096;-61
2022/09/21 12:51:33;;;;;;;4.20;0.80;;;19.30;98.00;;;;;;4899833;29;20119;-62
2022/09/21 12:54:11;;;;;;;5.57;1.20;;;19.30;98.00;;;;;;4899039;29;20041;-61
2022/09/21 12:57:21;;;;;;;6.00;1.25;;;19.30;97.50;;;;;;4899071;29;20060;-61
2022/09/21 13:00:05;;;;;;;4.32;1.13;;;19.20;97.70;;;;;;4888405;29;20470;-62
2022/09/21 13:02:47;;;;;;;4.45;1.15;;;19.00;97.80;;;;;;4898941;29;20037;-61
2022/09/21 13:05:34;;;;;;;5.20;1.33;;;19.00;97.90;;;;;;4899297;29;20059;-61
2022/09/21 13:08:11;;;;;;;5.43;1.17;;;19.10;98.10;;;;;;4881433;29;20132;-63
2022/09/21 13:10:38;;;;;;;4.35;1.23;;;19.00;98.00;;;;;;4880280;29;20162;-61
2022/09/21 13:13:07;;;;;;;5.60;0.90;;;18.90;98.00;;;;;;4886236;29;20123;-61
2022/09/21 13:15:44;;;;;;;4.13;0.95;;;18.90;97.80;;;;;;4898285;29;20041;-61
2022/09/21 13:18:24;;;;;;;4.15;1.20;;;18.90;97.60;;;;;;4888561;29;20048;-61
2022/09/21 13:20:51;;;;;;;5.47;1.40;;;18.90;96.80;;;;;;4899167;29;20044;-61
2022/09/21 13:23:24;;;;;;;4.40;1.25;;;18.80;97.70;;;;;;4898966;29;20080;-62